sensor_id;sensor_type;location;lat;lon;timestamp;pressure;altitude;pressure_sealevel;temperature;humidity
72262;BME280;60173;52.112;8.648;2023-03-25T00:02:04;99221.28;;;8.00;86.99
72262;BME280;60173;52.112;8.648;2023-03-25T00:04:30;99220.84;;;8.15;86.45
72262;BME280;60173;52.112;8.648;2023-03-25T00:06:57;99220.34;;;8.05;86.61
72262;BME280;60173;52.112;8.648;2023-03-25T00:09:23;99218.94;;;8.07;86.82
72262;BME280;60173;52.112;8.648;2023-03-25T00:11:49;99226.72;;;8.09;86.84
72262;BME280;60173;52.112;8.648;2023-03-25T00:14:16;99223.44;;;8.21;86.43
72262;BME280;60173;52.112;8.648;2023-03-25T00:16:42;99224.25;;;8.30;86.22
72262;BME280;60173;52.112;8.648;2023-03-25T00:19:09;99226.03;;;8.34;86.05
72262;BME280;60173;52.112;8.648;2023-03-25T00:21:35;99225.59;;;8.41;85.45
72262;BME280;60173;52.112;8.648;2023-03-25T00:24:02;99227.16;;;8.33;85.55
72262;BME280;60173;52.112;8.648;2023-03-25T00:26:28;99216.69;;;8.41;84.82
72262;BME280;60173;52.112;8.648;2023-03-25T00:28:54;99219.16;;;8.59;83.63
72262;BME280;60173;52.112;8.648;2023-03-25T00:31:21;99215.78;;;8.54;84.10
72262;BME280;60173;52.112;8.648;2023-03-25T00:33:47;99216.25;;;8.56;83.37
72262;BME280;60173;52.112;8.648;2023-03-25T00:36:14;99219.59;;;8.62;83.39
72262;BME280;60173;52.112;8.648;2023-03-25T00:38:40;99217.53;;;8.58;83.18
72262;BME280;60173;52.112;8.648;2023-03-25T00:41:19;99214.38;;;8.56;82.80
72262;BME280;60173;52.112;8.648;2023-03-25T00:43:45;99211.81;;;8.51;83.06
72262;BME280;60173;52.112;8.648;2023-03-25T00:46:12;99212.59;;;8.52;82.84
72262;BME280;60173;52.112;8.648;2023-03-25T00:48:38;99209.91;;;8.60;82.82
72262;BME280;60173;52.112;8.648;2023-03-25T00:51:04;99212.63;;;8.69;82.70
72262;BME280;60173;52.112;8.648;2023-03-25T00:53:32;99205.75;;;8.54;82.85
72262;BME280;60173;52.112;8.648;2023-03-25T00:55:58;99203.22;;;8.67;82.07
72262;BME280;60173;52.112;8.648;2023-03-25T00:58:25;99211.97;;;8.64;81.92
72262;BME280;60173;52.112;8.648;2023-03-25T01:00:52;99221.69;;;8.65;82.64
72262;BME280;60173;52.112;8.648;2023-03-25T01:03:18;99222.47;;;8.56;83.83
72262;BME280;60173;52.112;8.648;2023-03-25T01:05:44;99215.78;;;8.54;84.42
72262;BME280;60173;52.112;8.648;2023-03-25T01:08:11;99220.72;;;8.60;84.29
72262;BME280;60173;52.112;8.648;2023-03-25T01:10:37;99212.13;;;8.58;83.82
72262;BME280;60173;52.112;8.648;2023-03-25T01:13:03;99209.41;;;8.50;84.46
72262;BME280;60173;52.112;8.648;2023-03-25T01:15:30;99207.66;;;8.45;85.54
72262;BME280;60173;52.112;8.648;2023-03-25T01:17:56;99212.56;;;8.43;86.20
72262;BME280;60173;52.112;8.648;2023-03-25T01:20:22;99208.84;;;8.30;87.39
72262;BME280;60173;52.112;8.648;2023-03-25T01:22:49;99203.09;;;8.32;87.65
72262;BME280;60173;52.112;8.648;2023-03-25T01:25:15;99209.00;;;8.34;87.76
72262;BME280;60173;52.112;8.648;2023-03-25T01:27:42;99212.78;;;8.24;87.67
72262;BME280;60173;52.112;8.648;2023-03-25T01:30:08;99213.94;;;8.32;86.90
72262;BME280;60173;52.112;8.648;2023-03-25T01:32:35;99213.78;;;8.37;86.72
72262;BME280;60173;52.112;8.648;2023-03-25T01:35:02;99208.66;;;8.27;86.46
72262;BME280;60173;52.112;8.648;2023-03-25T01:37:28;99218.84;;;8.30;86.25
72262;BME280;60173;52.112;8.648;2023-03-25T01:39:54;99219.22;;;8.37;86.12
72262;BME280;60173;52.112;8.648;2023-03-25T01:42:21;99217.13;;;8.34;86.01
72262;BME280;60173;52.112;8.648;2023-03-25T01:47:16;99209.31;;;8.32;85.87
72262;BME280;60173;52.112;8.648;2023-03-25T01:49:44;99211.84;;;8.29;85.45
72262;BME280;60173;52.112;8.648;2023-03-25T01:52:14;99208.53;;;8.32;85.81
72262;BME280;60173;52.112;8.648;2023-03-25T01:54:42;99208.44;;;8.46;83.86
72262;BME280;60173;52.112;8.648;2023-03-25T01:57:12;99206.22;;;8.48;83.92
72262;BME280;60173;52.112;8.648;2023-03-25T01:59:40;99215.28;;;8.43;84.74
72262;BME280;60173;52.112;8.648;2023-03-25T02:02:07;99204.78;;;8.50;83.95
72262;BME280;60173;52.112;8.648;2023-03-25T02:04:42;99198.53;;;8.41;84.01
72262;BME280;60173;52.112;8.648;2023-03-25T02:07:11;99205.88;;;8.41;84.51
72262;BME280;60173;52.112;8.648;2023-03-25T02:09:38;99199.03;;;8.43;84.19
72262;BME280;60173;52.112;8.648;2023-03-25T02:12:04;99207.81;;;8.49;83.82
72262;BME280;60173;52.112;8.648;2023-03-25T02:14:33;99193.34;;;8.53;84.12
72262;BME280;60173;52.112;8.648;2023-03-25T02:20:23;99193.53;;;8.26;85.03
72262;BME280;60173;52.112;8.648;2023-03-25T02:29:05;99196.28;;;8.34;83.55
72262;BME280;60173;52.112;8.648;2023-03-25T02:31:55;99187.53;;;8.37;83.38
72262;BME280;60173;52.112;8.648;2023-03-25T02:34:39;99183.84;;;8.25;83.03
72262;BME280;60173;52.112;8.648;2023-03-25T02:37:21;99187.19;;;8.22;82.49
72262;BME280;60173;52.112;8.648;2023-03-25T02:39:56;99179.53;;;8.24;81.44
72262;BME280;60173;52.112;8.648;2023-03-25T02:42:33;99176.38;;;8.22;81.88
72262;BME280;60173;52.112;8.648;2023-03-25T02:45:11;99177.31;;;8.26;81.19
72262;BME280;60173;52.112;8.648;2023-03-25T02:47:44;99180.53;;;8.36;81.20
72262;BME280;60173;52.112;8.648;2023-03-25T02:50:16;99178.63;;;8.37;80.29
72262;BME280;60173;52.112;8.648;2023-03-25T02:52:50;99176.69;;;8.29;80.61
72262;BME280;60173;52.112;8.648;2023-03-25T02:55:21;99176.69;;;8.29;80.70
72262;BME280;60173;52.112;8.648;2023-03-25T02:57:50;99175.44;;;8.35;80.63
72262;BME280;60173;52.112;8.648;2023-03-25T03:00:22;99162.84;;;8.30;80.33
72262;BME280;60173;52.112;8.648;2023-03-25T03:03:09;99156.06;;;8.42;80.47
72262;BME280;60173;52.112;8.648;2023-03-25T03:05:45;99158.38;;;8.26;80.93
72262;BME280;60173;52.112;8.648;2023-03-25T03:10:49;99162.66;;;8.18;81.31
72262;BME280;60173;52.112;8.648;2023-03-25T03:13:32;99165.34;;;8.18;81.33
72262;BME280;60173;52.112;8.648;2023-03-25T03:16:15;99161.66;;;8.05;82.56
72262;BME280;60173;52.112;8.648;2023-03-25T03:21:32;99170.63;;;8.23;82.04
72262;BME280;60173;52.112;8.648;2023-03-25T03:24:12;99173.97;;;8.20;83.50
72262;BME280;60173;52.112;8.648;2023-03-25T03:29:27;99170.09;;;7.73;85.40
72262;BME280;60173;52.112;8.648;2023-03-25T03:34:54;99150.06;;;7.74;84.53
72262;BME280;60173;52.112;8.648;2023-03-25T03:37:26;99158.31;;;7.68;84.29
72262;BME280;60173;52.112;8.648;2023-03-25T03:39:54;99163.09;;;7.72;83.57
72262;BME280;60173;52.112;8.648;2023-03-25T03:42:41;99163.59;;;7.74;83.69
72262;BME280;60173;52.112;8.648;2023-03-25T03:45:16;99157.84;;;7.75;83.83
72262;BME280;60173;52.112;8.648;2023-03-25T03:47:48;99156.44;;;7.78;83.54
72262;BME280;60173;52.112;8.648;2023-03-25T03:50:19;99156.97;;;7.88;83.68
72262;BME280;60173;52.112;8.648;2023-03-25T03:53:06;99175.84;;;7.80;84.02
72262;BME280;60173;52.112;8.648;2023-03-25T03:55:37;99181.31;;;7.88;84.71
72262;BME280;60173;52.112;8.648;2023-03-25T03:58:25;99184.97;;;7.92;85.74
72262;BME280;60173;52.112;8.648;2023-03-25T04:01:07;99170.09;;;7.73;88.04
72262;BME280;60173;52.112;8.648;2023-03-25T04:03:42;99185.78;;;7.62;89.07
72262;BME280;60173;52.112;8.648;2023-03-25T04:06:16;99187.75;;;7.47;89.52
72262;BME280;60173;52.112;8.648;2023-03-25T04:08:52;99177.63;;;7.53;90.06
72262;BME280;60173;52.112;8.648;2023-03-25T04:11:22;99187.25;;;7.45;91.20
72262;BME280;60173;52.112;8.648;2023-03-25T04:13:52;99172.13;;;7.36;92.88
72262;BME280;60173;52.112;8.648;2023-03-25T04:16:22;99176.50;;;7.32;93.77
72262;BME280;60173;52.112;8.648;2023-03-25T04:18:49;99162.44;;;7.35;94.22
72262;BME280;60173;52.112;8.648;2023-03-25T04:21:15;99189.91;;;7.37;93.38
72262;BME280;60173;52.112;8.648;2023-03-25T04:23:41;99187.56;;;7.21;94.70
72262;BME280;60173;52.112;8.648;2023-03-25T04:26:08;99191.31;;;7.12;95.37
72262;BME280;60173;52.112;8.648;2023-03-25T04:28:34;99197.44;;;7.04;96.15
72262;BME280;60173;52.112;8.648;2023-03-25T04:31:00;99188.97;;;6.96;96.67
72262;BME280;60173;52.112;8.648;2023-03-25T04:33:27;99185.72;;;6.86;97.70
72262;BME280;60173;52.112;8.648;2023-03-25T04:35:53;99183.59;;;6.83;98.34
72262;BME280;60173;52.112;8.648;2023-03-25T04:38:20;99178.00;;;6.79;98.43
72262;BME280;60173;52.112;8.648;2023-03-25T04:40:46;99184.09;;;6.85;97.74
72262;BME280;60173;52.112;8.648;2023-03-25T04:43:14;99174.91;;;6.86;97.52
72262;BME280;60173;52.112;8.648;2023-03-25T04:45:42;99180.69;;;6.93;97.00
72262;BME280;60173;52.112;8.648;2023-03-25T04:48:20;99186.56;;;6.95;96.83
72262;BME280;60173;52.112;8.648;2023-03-25T04:50:47;99180.19;;;6.91;97.13
72262;BME280;60173;52.112;8.648;2023-03-25T04:53:14;99185.28;;;6.92;96.78
72262;BME280;60173;52.112;8.648;2023-03-25T04:55:40;99168.72;;;7.08;95.59
72262;BME280;60173;52.112;8.648;2023-03-25T04:58:08;99184.13;;;7.07;95.58
72262;BME280;60173;52.112;8.648;2023-03-25T05:00:34;99165.22;;;7.07;94.95
72262;BME280;60173;52.112;8.648;2023-03-25T05:03:01;99169.72;;;7.12;94.47
72262;BME280;60173;52.112;8.648;2023-03-25T05:05:27;99165.97;;;7.21;94.00
72262;BME280;60173;52.112;8.648;2023-03-25T05:07:54;99159.00;;;7.20;93.66
72262;BME280;60173;52.112;8.648;2023-03-25T05:10:23;99155.97;;;7.22;92.61
72262;BME280;60173;52.112;8.648;2023-03-25T05:13:00;99164.97;;;7.17;92.03
72262;BME280;60173;52.112;8.648;2023-03-25T05:15:27;99158.09;;;7.11;91.92
72262;BME280;60173;52.112;8.648;2023-03-25T05:17:53;99156.22;;;7.12;91.80
72262;BME280;60173;52.112;8.648;2023-03-25T05:20:19;99158.25;;;7.06;91.53
72262;BME280;60173;52.112;8.648;2023-03-25T05:22:46;99156.81;;;7.09;90.51
72262;BME280;60173;52.112;8.648;2023-03-25T05:25:12;99161.25;;;7.05;90.93
72262;BME280;60173;52.112;8.648;2023-03-25T05:27:38;99153.47;;;7.03;90.65
72262;BME280;60173;52.112;8.648;2023-03-25T05:30:06;99171.44;;;7.08;90.04
72262;BME280;60173;52.112;8.648;2023-03-25T05:32:33;99161.31;;;7.13;89.23
72262;BME280;60173;52.112;8.648;2023-03-25T05:35:00;99165.25;;;7.30;88.90
72262;BME280;60173;52.112;8.648;2023-03-25T05:37:27;99173.63;;;7.28;89.19
72262;BME280;60173;52.112;8.648;2023-03-25T05:39:54;99171.63;;;7.34;89.49
72262;BME280;60173;52.112;8.648;2023-03-25T05:42:20;99173.97;;;7.27;89.70
72262;BME280;60173;52.112;8.648;2023-03-25T05:44:51;99178.38;;;7.22;90.26
72262;BME280;60173;52.112;8.648;2023-03-25T05:47:21;99177.47;;;7.27;89.98
72262;BME280;60173;52.112;8.648;2023-03-25T05:49:50;99172.56;;;7.29;89.16
72262;BME280;60173;52.112;8.648;2023-03-25T05:52:17;99186.53;;;7.31;88.31
72262;BME280;60173;52.112;8.648;2023-03-25T05:54:45;99187.69;;;7.39;87.86
72262;BME280;60173;52.112;8.648;2023-03-25T05:57:12;99183.09;;;7.39;87.94
72262;BME280;60173;52.112;8.648;2023-03-25T05:59:38;99178.69;;;7.43;87.77
72262;BME280;60173;52.112;8.648;2023-03-25T06:02:06;99185.06;;;7.47;86.71
72262;BME280;60173;52.112;8.648;2023-03-25T06:04:34;99197.03;;;7.55;86.17
72262;BME280;60173;52.112;8.648;2023-03-25T06:07:00;99195.75;;;7.53;86.74
72262;BME280;60173;52.112;8.648;2023-03-25T06:09:27;99188.25;;;7.50;85.44
72262;BME280;60173;52.112;8.648;2023-03-25T06:11:53;99191.31;;;7.57;85.73
72262;BME280;60173;52.112;8.648;2023-03-25T06:14:19;99195.41;;;7.54;86.36
72262;BME280;60173;52.112;8.648;2023-03-25T06:16:46;99191.72;;;7.73;85.58
72262;BME280;60173;52.112;8.648;2023-03-25T06:19:12;99194.78;;;7.80;85.07
72262;BME280;60173;52.112;8.648;2023-03-25T06:21:38;99195.34;;;7.68;85.72
72262;BME280;60173;52.112;8.648;2023-03-25T06:24:05;99186.66;;;7.80;85.32
72262;BME280;60173;52.112;8.648;2023-03-25T06:26:31;99190.03;;;7.85;85.46
72262;BME280;60173;52.112;8.648;2023-03-25T06:28:58;99196.72;;;7.88;85.08
72262;BME280;60173;52.112;8.648;2023-03-25T06:31:25;99201.34;;;7.87;85.63
72262;BME280;60173;52.112;8.648;2023-03-25T06:33:52;99204.47;;;7.81;86.30
72262;BME280;60173;52.112;8.648;2023-03-25T06:36:19;99206.69;;;7.79;87.67
72262;BME280;60173;52.112;8.648;2023-03-25T06:38:47;99201.25;;;7.70;88.61
72262;BME280;60173;52.112;8.648;2023-03-25T06:41:15;99204.69;;;7.62;89.47
72262;BME280;60173;52.112;8.648;2023-03-25T06:43:41;99219.50;;;7.42;90.69
72262;BME280;60173;52.112;8.648;2023-03-25T06:46:08;99222.03;;;7.38;91.95
72262;BME280;60173;52.112;8.648;2023-03-25T06:48:34;99216.91;;;7.37;92.45
72262;BME280;60173;52.112;8.648;2023-03-25T06:51:01;99206.28;;;7.40;92.26
72262;BME280;60173;52.112;8.648;2023-03-25T06:53:27;99213.03;;;7.52;91.42
72262;BME280;60173;52.112;8.648;2023-03-25T06:55:55;99207.22;;;7.58;91.02
72262;BME280;60173;52.112;8.648;2023-03-25T06:58:22;99208.94;;;7.54;91.14
72262;BME280;60173;52.112;8.648;2023-03-25T07:00:54;99209.94;;;7.58;90.04
72262;BME280;60173;52.112;8.648;2023-03-25T07:03:21;99198.22;;;7.72;88.91
72262;BME280;60173;52.112;8.648;2023-03-25T07:05:47;99215.53;;;7.93;87.22
72262;BME280;60173;52.112;8.648;2023-03-25T07:08:14;99205.13;;;8.18;86.58
72262;BME280;60173;52.112;8.648;2023-03-25T07:10:41;99206.84;;;8.05;86.19
72262;BME280;60173;52.112;8.648;2023-03-25T07:13:08;99207.28;;;8.07;85.72
72262;BME280;60173;52.112;8.648;2023-03-25T07:15:36;99199.75;;;8.26;85.49
72262;BME280;60173;52.112;8.648;2023-03-25T07:18:02;99192.28;;;8.32;84.33
72262;BME280;60173;52.112;8.648;2023-03-25T07:20:29;99200.47;;;8.41;84.61
72262;BME280;60173;52.112;8.648;2023-03-25T07:22:55;99207.47;;;8.50;85.05
72262;BME280;60173;52.112;8.648;2023-03-25T07:25:21;99207.44;;;8.42;85.08
72262;BME280;60173;52.112;8.648;2023-03-25T07:27:48;99209.84;;;8.43;84.98
72262;BME280;60173;52.112;8.648;2023-03-25T07:30:14;99209.22;;;8.46;84.69
72262;BME280;60173;52.112;8.648;2023-03-25T07:32:43;99215.75;;;8.45;84.97
72262;BME280;60173;52.112;8.648;2023-03-25T07:35:09;99197.81;;;8.18;85.59
72262;BME280;60173;52.112;8.648;2023-03-25T07:37:36;99215.53;;;7.93;87.56
72262;BME280;60173;52.112;8.648;2023-03-25T07:40:02;99227.31;;;7.97;88.85
72262;BME280;60173;52.112;8.648;2023-03-25T07:42:29;99217.44;;;8.01;88.38
72262;BME280;60173;52.112;8.648;2023-03-25T07:44:55;99213.63;;;7.93;88.24
72262;BME280;60173;52.112;8.648;2023-03-25T07:47:21;99218.56;;;8.00;88.50
72262;BME280;60173;52.112;8.648;2023-03-25T07:49:48;99219.22;;;7.75;89.59
72262;BME280;60173;52.112;8.648;2023-03-25T07:52:14;99226.53;;;7.74;90.83
72262;BME280;60173;52.112;8.648;2023-03-25T07:54:40;99218.59;;;7.78;91.08
72262;BME280;60173;52.112;8.648;2023-03-25T07:57:06;99218.94;;;7.76;90.99
72262;BME280;60173;52.112;8.648;2023-03-25T07:59:33;99209.00;;;7.94;89.81
72262;BME280;60173;52.112;8.648;2023-03-25T08:01:59;99221.94;;;7.75;90.53
72262;BME280;60173;52.112;8.648;2023-03-25T08:04:26;99217.31;;;7.75;90.52
72262;BME280;60173;52.112;8.648;2023-03-25T08:06:52;99221.41;;;7.95;90.23
72262;BME280;60173;52.112;8.648;2023-03-25T08:09:18;99216.50;;;7.97;89.81
72262;BME280;60173;52.112;8.648;2023-03-25T08:11:47;99231.97;;;8.05;90.17
72262;BME280;60173;52.112;8.648;2023-03-25T08:14:17;99238.03;;;8.42;88.99
72262;BME280;60173;52.112;8.648;2023-03-25T08:16:43;99234.16;;;8.34;88.80
72262;BME280;60173;52.112;8.648;2023-03-25T08:19:10;99227.25;;;8.51;88.45
72262;BME280;60173;52.112;8.648;2023-03-25T08:21:38;99229.06;;;8.90;86.21
72262;BME280;60173;52.112;8.648;2023-03-25T08:24:04;99231.59;;;8.78;86.95
72262;BME280;60173;52.112;8.648;2023-03-25T08:26:39;99230.00;;;8.77;85.91
72262;BME280;60173;52.112;8.648;2023-03-25T08:29:09;99233.78;;;8.58;86.80
72262;BME280;60173;52.112;8.648;2023-03-25T08:31:35;99232.47;;;8.56;86.79
72262;BME280;60173;52.112;8.648;2023-03-25T08:34:03;99224.50;;;8.42;87.27
72262;BME280;60173;52.112;8.648;2023-03-25T08:36:32;99238.28;;;8.32;87.43
72262;BME280;60173;52.112;8.648;2023-03-25T08:38:59;99234.09;;;8.17;86.50
72262;BME280;60173;52.112;8.648;2023-03-25T08:41:25;99235.69;;;8.27;86.15
72262;BME280;60173;52.112;8.648;2023-03-25T08:43:52;99229.03;;;8.33;85.02
72262;BME280;60173;52.112;8.648;2023-03-25T08:46:18;99228.06;;;8.60;82.94
72262;BME280;60173;52.112;8.648;2023-03-25T08:48:44;99228.91;;;8.87;82.52
72262;BME280;60173;52.112;8.648;2023-03-25T08:51:11;99228.28;;;8.98;82.38
72262;BME280;60173;52.112;8.648;2023-03-25T08:53:37;99223.34;;;8.92;81.19
72262;BME280;60173;52.112;8.648;2023-03-25T08:56:05;99215.84;;;8.80;81.56
72262;BME280;60173;52.112;8.648;2023-03-25T08:58:32;99213.28;;;8.83;81.04
72262;BME280;60173;52.112;8.648;2023-03-25T09:00:58;99220.13;;;8.81;80.79
72262;BME280;60173;52.112;8.648;2023-03-25T09:03:25;99222.56;;;9.00;79.96
72262;BME280;60173;52.112;8.648;2023-03-25T09:05:52;99221.91;;;9.03;80.49
72262;BME280;60173;52.112;8.648;2023-03-25T09:08:19;99227.50;;;9.24;79.41
72262;BME280;60173;52.112;8.648;2023-03-25T09:10:46;99230.84;;;9.38;79.01
72262;BME280;60173;52.112;8.648;2023-03-25T09:13:12;99236.41;;;9.42;78.41
72262;BME280;60173;52.112;8.648;2023-03-25T09:15:38;99234.50;;;9.51;77.13
72262;BME280;60173;52.112;8.648;2023-03-25T09:18:08;99232.91;;;9.59;75.56
72262;BME280;60173;52.112;8.648;2023-03-25T09:20:35;99225.91;;;9.58;76.38
72262;BME280;60173;52.112;8.648;2023-03-25T09:23:01;99235.25;;;9.78;74.39
72262;BME280;60173;52.112;8.648;2023-03-25T09:25:27;99238.59;;;9.74;74.14
72262;BME280;60173;52.112;8.648;2023-03-25T09:27:54;99225.88;;;9.75;73.96
72262;BME280;60173;52.112;8.648;2023-03-25T09:30:20;99228.06;;;9.90;73.06
72262;BME280;60173;52.112;8.648;2023-03-25T09:32:46;99228.06;;;9.90;71.74
72262;BME280;60173;52.112;8.648;2023-03-25T09:35:13;99236.94;;;10.00;71.99
72262;BME280;60173;52.112;8.648;2023-03-25T09:37:39;99234.38;;;10.03;70.93
72262;BME280;60173;52.112;8.648;2023-03-25T09:40:06;99240.91;;;10.11;72.07
72262;BME280;60173;52.112;8.648;2023-03-25T09:45:49;99222.13;;;10.74;68.58
72262;BME280;60173;52.112;8.648;2023-03-25T09:48:42;99215.06;;;11.02;67.38
72262;BME280;60173;52.112;8.648;2023-03-25T09:51:29;99219.28;;;11.33;65.71
72262;BME280;60173;52.112;8.648;2023-03-25T09:54:02;99221.22;;;10.91;65.60
72262;BME280;60173;52.112;8.648;2023-03-25T09:56:33;99226.22;;;10.59;66.47
72262;BME280;60173;52.112;8.648;2023-03-25T09:59:17;99224.09;;;10.26;67.10
72262;BME280;60173;52.112;8.648;2023-03-25T10:04:34;99224.19;;;10.00;68.77
72262;BME280;60173;52.112;8.648;2023-03-25T10:12:56;99236.25;;;9.64;69.80
72262;BME280;60173;52.112;8.648;2023-03-25T10:15:33;99225.56;;;9.50;69.59
72262;BME280;60173;52.112;8.648;2023-03-25T10:18:27;99223.19;;;9.40;69.37
72262;BME280;60173;52.112;8.648;2023-03-25T10:21:07;99228.28;;;9.33;69.88
72262;BME280;60173;52.112;8.648;2023-03-25T10:26:18;99232.25;;;9.62;70.41
72262;BME280;60173;52.112;8.648;2023-03-25T10:28:50;99222.75;;;10.03;69.84
72262;BME280;60173;52.112;8.648;2023-03-25T10:31:19;99212.44;;;10.34;67.28
72262;BME280;60173;52.112;8.648;2023-03-25T10:33:57;99236.13;;;10.55;66.60
72262;BME280;60173;52.112;8.648;2023-03-25T10:36:34;99233.53;;;10.20;69.14
72262;BME280;60173;52.112;8.648;2023-03-25T10:39:10;99250.59;;;10.29;72.14
72262;BME280;60173;52.112;8.648;2023-03-25T10:41:39;99245.91;;;9.91;72.83
72262;BME280;60173;52.112;8.648;2023-03-25T10:44:09;99242.56;;;9.86;74.45
72262;BME280;60173;52.112;8.648;2023-03-25T10:46:40;99236.31;;;10.03;73.95
72262;BME280;60173;52.112;8.648;2023-03-25T10:49:10;99243.75;;;10.91;72.43
72262;BME280;60173;52.112;8.648;2023-03-25T10:51:37;99229.31;;;11.20;69.27
72262;BME280;60173;52.112;8.648;2023-03-25T10:54:04;99232.59;;;11.47;68.44
72262;BME280;60173;52.112;8.648;2023-03-25T10:56:35;99229.19;;;11.38;68.26
72262;BME280;60173;52.112;8.648;2023-03-25T10:59:10;99232.75;;;11.29;68.54
72262;BME280;60173;52.112;8.648;2023-03-25T11:01:41;99242.09;;;10.99;69.51
72262;BME280;60173;52.112;8.648;2023-03-25T11:04:11;99240.50;;;10.47;70.58
72262;BME280;60173;52.112;8.648;2023-03-25T11:06:40;99239.75;;;10.29;70.72
72262;BME280;60173;52.112;8.648;2023-03-25T11:11:34;99236.91;;;10.55;71.18
72262;BME280;60173;52.112;8.648;2023-03-25T11:14:01;99221.75;;;11.05;70.17
72262;BME280;60173;52.112;8.648;2023-03-25T11:16:32;99215.97;;;11.27;69.84
72262;BME280;60173;52.112;8.648;2023-03-25T11:19:00;99218.66;;;11.48;68.89
72262;BME280;60173;52.112;8.648;2023-03-25T11:21:34;99225.59;;;11.46;67.75
72262;BME280;60173;52.112;8.648;2023-03-25T11:24:01;99213.88;;;11.66;66.43
72262;BME280;60173;52.112;8.648;2023-03-25T11:26:38;99206.97;;;12.14;64.95
72262;BME280;60173;52.112;8.648;2023-03-25T11:29:12;99219.22;;;12.08;64.38
72262;BME280;60173;52.112;8.648;2023-03-25T11:31:40;99208.09;;;12.26;63.87
72262;BME280;60173;52.112;8.648;2023-03-25T11:34:21;99218.09;;;12.09;64.20
72262;BME280;60173;52.112;8.648;2023-03-25T11:36:52;99226.06;;;11.06;66.43
72262;BME280;60173;52.112;8.648;2023-03-25T11:41:49;99254.50;;;10.49;71.36
72262;BME280;60173;52.112;8.648;2023-03-25T11:44:34;99251.97;;;10.44;73.32
72262;BME280;60173;52.112;8.648;2023-03-25T11:47:08;99249.03;;;10.58;72.38
72262;BME280;60173;52.112;8.648;2023-03-25T11:49:37;99242.78;;;10.66;72.57
72262;BME280;60173;52.112;8.648;2023-03-25T11:52:07;99221.06;;;10.66;72.37
72262;BME280;60173;52.112;8.648;2023-03-25T11:54:35;99229.81;;;10.72;73.84
72262;BME280;60173;52.112;8.648;2023-03-25T11:57:04;99227.16;;;10.84;74.29
72262;BME280;60173;52.112;8.648;2023-03-25T11:59:38;99224.25;;;11.10;73.04
72262;BME280;60173;52.112;8.648;2023-03-25T12:02:43;99224.50;;;10.75;73.42
72262;BME280;60173;52.112;8.648;2023-03-25T12:05:13;99214.13;;;10.77;73.90
72262;BME280;60173;52.112;8.648;2023-03-25T12:07:45;99200.59;;;11.11;71.42
72262;BME280;60173;52.112;8.648;2023-03-25T12:15:56;99199.56;;;12.88;68.67
72262;BME280;60173;52.112;8.648;2023-03-25T12:18:30;99193.44;;;13.32;66.20
72262;BME280;60173;52.112;8.648;2023-03-25T12:23:58;99182.47;;;13.04;64.23
72262;BME280;60173;52.112;8.648;2023-03-25T12:29:41;99192.22;;;12.40;65.58
72262;BME280;60173;52.112;8.648;2023-03-25T12:35:02;99194.94;;;12.03;65.98
72262;BME280;60173;52.112;8.648;2023-03-25T12:37:55;99185.66;;;12.04;66.67
72262;BME280;60173;52.112;8.648;2023-03-25T12:40:35;99188.97;;;11.76;67.32
72262;BME280;60173;52.112;8.648;2023-03-25T12:43:10;99187.03;;;11.77;66.85
72262;BME280;60173;52.112;8.648;2023-03-25T12:51:15;99208.19;;;10.54;74.50
72262;BME280;60173;52.112;8.648;2023-03-25T13:07:27;99214.31;;;10.93;80.76
72262;BME280;60173;52.112;8.648;2023-03-25T13:10:02;99219.16;;;11.63;79.57
72262;BME280;60173;52.112;8.648;2023-03-25T13:12:37;99211.75;;;12.42;77.86
72262;BME280;60173;52.112;8.648;2023-03-25T13:15:23;99227.16;;;12.13;76.98
72262;BME280;60173;52.112;8.648;2023-03-25T13:18:19;99231.78;;;11.67;76.07
72262;BME280;60173;52.112;8.648;2023-03-25T13:23:39;99229.38;;;11.12;76.76
72262;BME280;60173;52.112;8.648;2023-03-25T13:26:25;99234.16;;;10.64;78.65
72262;BME280;60173;52.112;8.648;2023-03-25T13:28:56;99227.88;;;10.43;80.10
72262;BME280;60173;52.112;8.648;2023-03-25T13:31:27;99227.81;;;10.13;80.91
72262;BME280;60173;52.112;8.648;2023-03-25T13:39:49;99208.34;;;9.64;82.32
72262;BME280;60173;52.112;8.648;2023-03-25T13:42:29;99195.88;;;9.63;81.66
72262;BME280;60173;52.112;8.648;2023-03-25T13:44:58;99187.03;;;9.92;80.83
72262;BME280;60173;52.112;8.648;2023-03-25T13:47:32;99188.34;;;9.77;78.73
72262;BME280;60173;52.112;8.648;2023-03-25T13:50:27;99197.13;;;9.74;78.54
72262;BME280;60173;52.112;8.648;2023-03-25T13:52:57;99190.22;;;9.94;77.37
72262;BME280;60173;52.112;8.648;2023-03-25T13:55:32;99194.03;;;10.02;77.78
72262;BME280;60173;52.112;8.648;2023-03-25T13:58:25;99192.75;;;9.99;77.83
72262;BME280;60173;52.112;8.648;2023-03-25T14:03:49;99190.53;;;10.01;77.26
72262;BME280;60173;52.112;8.648;2023-03-25T14:12:31;99209.63;;;9.58;77.79
72262;BME280;60173;52.112;8.648;2023-03-25T14:15:12;99222.69;;;9.56;78.68
72262;BME280;60173;52.112;8.648;2023-03-25T14:17:40;99213.16;;;9.32;79.78
72262;BME280;60173;52.112;8.648;2023-03-25T14:20:08;99216.31;;;9.17;82.99
72262;BME280;60173;52.112;8.648;2023-03-25T14:22:38;99225.59;;;9.16;85.09
72262;BME280;60173;52.112;8.648;2023-03-25T14:25:19;99240.88;;;9.12;86.94
72262;BME280;60173;52.112;8.648;2023-03-25T14:27:48;99242.63;;;9.34;87.29
72262;BME280;60173;52.112;8.648;2023-03-25T14:30:26;99235.59;;;9.59;86.35
72262;BME280;60173;52.112;8.648;2023-03-25T14:32:54;99235.09;;;9.74;85.73
72262;BME280;60173;52.112;8.648;2023-03-25T14:43:35;99222.50;;;10.25;83.28
72262;BME280;60173;52.112;8.648;2023-03-25T14:48:35;99220.50;;;10.05;81.89
72262;BME280;60173;52.112;8.648;2023-03-25T14:51:13;99230.13;;;9.85;83.30
72262;BME280;60173;52.112;8.648;2023-03-25T14:53:49;99231.13;;;9.54;84.00
72262;BME280;60173;52.112;8.648;2023-03-25T14:56:22;99249.31;;;9.27;84.90
72262;BME280;60173;52.112;8.648;2023-03-25T14:58:55;99237.53;;;8.97;87.47
72262;BME280;60173;52.112;8.648;2023-03-25T15:01:29;99232.38;;;8.70;87.39
72262;BME280;60173;52.112;8.648;2023-03-25T15:04:23;99223.56;;;8.47;87.97
72262;BME280;60173;52.112;8.648;2023-03-25T15:06:50;99218.28;;;8.42;89.45
72262;BME280;60173;52.112;8.648;2023-03-25T15:09:17;99214.63;;;8.46;89.44